sensor_id;sensor_type;location;lat;lon;timestamp;temperature;humidity
58666;DHT22;44436;52.872;6.520;2022-11-06T00:00:16;10.30;99.90
58666;DHT22;44436;52.872;6.520;2022-11-06T00:02:42;10.30;99.90
58666;DHT22;44436;52.872;6.520;2022-11-06T00:05:09;10.30;99.90
58666;DHT22;44436;52.872;6.520;2022-11-06T00:07:53;10.20;99.90
58666;DHT22;44436;52.872;6.520;2022-11-06T00:10:19;10.20;99.90
58666;DHT22;44436;52.872;6.520;2022-11-06T00:12:45;10.20;99.90
58666;DHT22;44436;52.872;6.520;2022-11-06T00:15:11;10.20;99.90
58666;DHT22;44436;52.872;6.520;2022-11-06T00:17:37;10.20;99.90
58666;DHT22;44436;52.872;6.520;2022-11-06T00:20:04;10.20;99.90
58666;DHT22;44436;52.872;6.520;2022-11-06T00:22:35;10.10;99.90
58666;DHT22;44436;52.872;6.520;2022-11-06T00:25:01;10.20;99.90
58666;DHT22;44436;52.872;6.520;2022-11-06T00:27:27;10.10;99.90
58666;DHT22;44436;52.872;6.520;2022-11-06T00:29:53;10.10;99.90
58666;DHT22;44436;52.872;6.520;2022-11-06T00:32:19;10.10;99.90
58666;DHT22;44436;52.872;6.520;2022-11-06T00:34:46;10.10;99.90
58666;DHT22;44436;52.872;6.520;2022-11-06T00:37:11;10.10;99.90
58666;DHT22;44436;52.872;6.520;2022-11-06T00:39:37;10.10;99.90
58666;DHT22;44436;52.872;6.520;2022-11-06T00:42:03;10.10;99.90
58666;DHT22;44436;52.872;6.520;2022-11-06T00:44:29;10.00;99.90
58666;DHT22;44436;52.872;6.520;2022-11-06T00:46:54;10.10;99.90
58666;DHT22;44436;52.872;6.520;2022-11-06T00:49:20;10.10;99.90
58666;DHT22;44436;52.872;6.520;2022-11-06T00:51:46;10.00;99.90
58666;DHT22;44436;52.872;6.520;2022-11-06T00:54:12;10.00;99.90
58666;DHT22;44436;52.872;6.520;2022-11-06T00:56:38;10.00;99.90
58666;DHT22;44436;52.872;6.520;2022-11-06T00:59:06;10.00;99.90
58666;DHT22;44436;52.872;6.520;2022-11-06T01:01:36;10.00;99.90
58666;DHT22;44436;52.872;6.520;2022-11-06T01:04:14;10.00;99.90
58666;DHT22;44436;52.872;6.520;2022-11-06T01:06:46;10.00;99.90
58666;DHT22;44436;52.872;6.520;2022-11-06T01:09:14;10.00;99.90
58666;DHT22;44436;52.872;6.520;2022-11-06T01:11:42;9.90;99.90
58666;DHT22;44436;52.872;6.520;2022-11-06T01:14:10;10.00;99.90
58666;DHT22;44436;52.872;6.520;2022-11-06T01:16:37;10.00;99.90
58666;DHT22;44436;52.872;6.520;2022-11-06T01:19:04;10.00;99.90
58666;DHT22;44436;52.872;6.520;2022-11-06T01:21:36;9.90;99.90
58666;DHT22;44436;52.872;6.520;2022-11-06T01:24:09;9.80;99.90
58666;DHT22;44436;52.872;6.520;2022-11-06T01:26:36;9.80;99.90
58666;DHT22;44436;52.872;6.520;2022-11-06T01:29:03;9.80;99.90
58666;DHT22;44436;52.872;6.520;2022-11-06T01:31:30;9.80;99.90
58666;DHT22;44436;52.872;6.520;2022-11-06T01:33:57;9.80;99.90
58666;DHT22;44436;52.872;6.520;2022-11-06T01:36:24;9.80;99.90
58666;DHT22;44436;52.872;6.520;2022-11-06T01:38:52;9.80;99.90
58666;DHT22;44436;52.872;6.520;2022-11-06T01:41:20;9.70;99.90
58666;DHT22;44436;52.872;6.520;2022-11-06T01:43:52;9.80;99.90
58666;DHT22;44436;52.872;6.520;2022-11-06T01:46:23;9.70;99.90
58666;DHT22;44436;52.872;6.520;2022-11-06T01:51:23;9.70;99.90
58666;DHT22;44436;52.872;6.520;2022-11-06T01:53:49;9.70;99.90
58666;DHT22;44436;52.872;6.520;2022-11-06T01:56:16;9.70;99.90
58666;DHT22;44436;52.872;6.520;2022-11-06T01:58:45;9.70;99.90
58666;DHT22;44436;52.872;6.520;2022-11-06T02:01:12;9.70;99.90
58666;DHT22;44436;52.872;6.520;2022-11-06T02:03:41;9.70;99.90
58666;DHT22;44436;52.872;6.520;2022-11-06T02:06:09;9.70;99.90
58666;DHT22;44436;52.872;6.520;2022-11-06T02:08:35;9.70;99.90
58666;DHT22;44436;52.872;6.520;2022-11-06T02:11:01;9.70;99.90
58666;DHT22;44436;52.872;6.520;2022-11-06T02:13:32;9.60;99.90
58666;DHT22;44436;52.872;6.520;2022-11-06T02:16:08;9.60;99.90
58666;DHT22;44436;52.872;6.520;2022-11-06T02:25:19;9.60;99.90
58666;DHT22;44436;52.872;6.520;2022-11-06T02:27:34;9.60;99.90
58666;DHT22;44436;52.872;6.520;2022-11-06T02:32:34;9.50;99.90
58666;DHT22;44436;52.872;6.520;2022-11-06T02:35:02;9.50;99.90
58666;DHT22;44436;52.872;6.520;2022-11-06T02:37:36;9.50;99.90
58666;DHT22;44436;52.872;6.520;2022-11-06T02:40:05;9.50;99.90
58666;DHT22;44436;52.872;6.520;2022-11-06T02:42:39;9.50;99.90
58666;DHT22;44436;52.872;6.520;2022-11-06T02:45:08;9.50;99.90
58666;DHT22;44436;52.872;6.520;2022-11-06T02:47:36;9.50;99.90
58666;DHT22;44436;52.872;6.520;2022-11-06T02:50:08;9.50;99.90
58666;DHT22;44436;52.872;6.520;2022-11-06T02:52:38;9.50;99.90
58666;DHT22;44436;52.872;6.520;2022-11-06T02:55:12;9.50;99.90
58666;DHT22;44436;52.872;6.520;2022-11-06T02:57:42;9.50;99.90
58666;DHT22;44436;52.872;6.520;2022-11-06T03:00:10;9.40;99.90
58666;DHT22;44436;52.872;6.520;2022-11-06T03:02:40;9.50;99.90
58666;DHT22;44436;52.872;6.520;2022-11-06T03:07:51;9.50;99.90
58666;DHT22;44436;52.872;6.520;2022-11-06T03:10:18;9.50;99.90
58666;DHT22;44436;52.872;6.520;2022-11-06T03:12:56;9.50;99.90
58666;DHT22;44436;52.872;6.520;2022-11-06T03:18:14;9.50;99.90
58666;DHT22;44436;52.872;6.520;2022-11-06T03:20:52;9.50;99.90
58666;DHT22;44436;52.872;6.520;2022-11-06T03:23:27;9.50;99.90
58666;DHT22;44436;52.872;6.520;2022-11-06T03:26:11;9.50;99.90
58666;DHT22;44436;52.872;6.520;2022-11-06T03:28:49;9.40;99.90
58666;DHT22;44436;52.872;6.520;2022-11-06T03:31:18;9.40;99.90
58666;DHT22;44436;52.872;6.520;2022-11-06T03:33:51;9.50;99.90
58666;DHT22;44436;52.872;6.520;2022-11-06T03:36:24;9.40;99.90
58666;DHT22;44436;52.872;6.520;2022-11-06T03:39:00;9.40;99.90
58666;DHT22;44436;52.872;6.520;2022-11-06T03:41:36;9.40;99.90
58666;DHT22;44436;52.872;6.520;2022-11-06T03:44:05;9.40;99.90
58666;DHT22;44436;52.872;6.520;2022-11-06T03:46:35;9.40;99.90
58666;DHT22;44436;52.872;6.520;2022-11-06T03:49:07;9.40;99.90
58666;DHT22;44436;52.872;6.520;2022-11-06T03:51:41;9.40;99.90
58666;DHT22;44436;52.872;6.520;2022-11-06T03:54:14;9.40;99.90
58666;DHT22;44436;52.872;6.520;2022-11-06T03:56:52;9.40;99.90
58666;DHT22;44436;52.872;6.520;2022-11-06T03:59:20;9.40;99.90
58666;DHT22;44436;52.872;6.520;2022-11-06T04:01:52;9.40;99.90
58666;DHT22;44436;52.872;6.520;2022-11-06T04:04:33;9.40;99.90
58666;DHT22;44436;52.872;6.520;2022-11-06T04:07:13;9.40;99.90
58666;DHT22;44436;52.872;6.520;2022-11-06T04:09:43;9.40;99.90
58666;DHT22;44436;52.872;6.520;2022-11-06T04:12:30;9.40;99.90
58666;DHT22;44436;52.872;6.520;2022-11-06T04:15:50;9.40;99.90
58666;DHT22;44436;52.872;6.520;2022-11-06T04:18:18;9.30;99.90
58666;DHT22;44436;52.872;6.520;2022-11-06T04:30:05;9.40;99.90
58666;DHT22;44436;52.872;6.520;2022-11-06T04:40:44;9.40;99.90
58666;DHT22;44436;52.872;6.520;2022-11-06T04:43:24;9.40;99.90
58666;DHT22;44436;52.872;6.520;2022-11-06T04:45:52;9.40;99.90
58666;DHT22;44436;52.872;6.520;2022-11-06T04:48:20;9.40;99.90
58666;DHT22;44436;52.872;6.520;2022-11-06T04:50:51;9.40;99.90
58666;DHT22;44436;52.872;6.520;2022-11-06T04:53:19;9.40;99.90
58666;DHT22;44436;52.872;6.520;2022-11-06T04:55:47;9.40;99.90
58666;DHT22;44436;52.872;6.520;2022-11-06T04:58:14;9.40;99.90
58666;DHT22;44436;52.872;6.520;2022-11-06T05:00:44;9.40;99.90
58666;DHT22;44436;52.872;6.520;2022-11-06T05:03:11;9.40;99.90
58666;DHT22;44436;52.872;6.520;2022-11-06T05:05:36;9.40;99.90
58666;DHT22;44436;52.872;6.520;2022-11-06T05:08:02;9.40;99.90
58666;DHT22;44436;52.872;6.520;2022-11-06T05:10:28;9.40;99.90
58666;DHT22;44436;52.872;6.520;2022-11-06T05:12:53;9.40;99.90
58666;DHT22;44436;52.872;6.520;2022-11-06T05:15:19;9.40;99.90
58666;DHT22;44436;52.872;6.520;2022-11-06T05:17:45;9.40;99.90
58666;DHT22;44436;52.872;6.520;2022-11-06T05:20:11;9.30;99.90
58666;DHT22;44436;52.872;6.520;2022-11-06T05:22:40;9.30;99.90
58666;DHT22;44436;52.872;6.520;2022-11-06T05:25:36;9.40;99.90
58666;DHT22;44436;52.872;6.520;2022-11-06T05:28:04;9.40;99.90
58666;DHT22;44436;52.872;6.520;2022-11-06T05:30:32;9.40;99.90
58666;DHT22;44436;52.872;6.520;2022-11-06T05:32:58;9.40;99.90
58666;DHT22;44436;52.872;6.520;2022-11-06T05:35:24;9.40;99.90
58666;DHT22;44436;52.872;6.520;2022-11-06T05:37:49;9.40;99.90
58666;DHT22;44436;52.872;6.520;2022-11-06T05:40:16;9.40;99.90
58666;DHT22;44436;52.872;6.520;2022-11-06T05:42:42;9.40;99.90
58666;DHT22;44436;52.872;6.520;2022-11-06T05:45:09;9.40;99.90
58666;DHT22;44436;52.872;6.520;2022-11-06T05:47:38;9.40;99.90
58666;DHT22;44436;52.872;6.520;2022-11-06T05:50:04;9.40;99.90
58666;DHT22;44436;52.872;6.520;2022-11-06T05:52:30;9.40;99.90
58666;DHT22;44436;52.872;6.520;2022-11-06T05:54:55;9.40;99.90
58666;DHT22;44436;52.872;6.520;2022-11-06T05:57:21;9.50;99.90
58666;DHT22;44436;52.872;6.520;2022-11-06T05:59:47;9.40;99.90
58666;DHT22;44436;52.872;6.520;2022-11-06T06:02:12;9.50;99.90
58666;DHT22;44436;52.872;6.520;2022-11-06T06:04:38;9.50;99.90
58666;DHT22;44436;52.872;6.520;2022-11-06T06:07:04;9.50;99.90
58666;DHT22;44436;52.872;6.520;2022-11-06T06:09:29;9.50;99.90
58666;DHT22;44436;52.872;6.520;2022-11-06T06:11:55;9.60;99.90
58666;DHT22;44436;52.872;6.520;2022-11-06T06:14:21;9.60;99.90
58666;DHT22;44436;52.872;6.520;2022-11-06T06:16:46;9.60;99.90
58666;DHT22;44436;52.872;6.520;2022-11-06T06:19:12;9.60;99.90
58666;DHT22;44436;52.872;6.520;2022-11-06T06:21:38;9.60;99.90
58666;DHT22;44436;52.872;6.520;2022-11-06T06:24:05;9.60;99.90
58666;DHT22;44436;52.872;6.520;2022-11-06T06:26:31;9.60;99.90
58666;DHT22;44436;52.872;6.520;2022-11-06T06:28:57;9.70;99.90
58666;DHT22;44436;52.872;6.520;2022-11-06T06:31:23;9.70;99.90
58666;DHT22;44436;52.872;6.520;2022-11-06T06:33:48;9.70;99.90
58666;DHT22;44436;52.872;6.520;2022-11-06T06:36:14;9.70;99.90
58666;DHT22;44436;52.872;6.520;2022-11-06T06:38:40;9.80;99.90
58666;DHT22;44436;52.872;6.520;2022-11-06T06:41:07;9.80;99.90
58666;DHT22;44436;52.872;6.520;2022-11-06T06:43:34;9.80;99.90
58666;DHT22;44436;52.872;6.520;2022-11-06T06:46:04;9.80;99.90
58666;DHT22;44436;52.872;6.520;2022-11-06T06:48:30;9.80;99.90
58666;DHT22;44436;52.872;6.520;2022-11-06T06:50:57;9.80;99.90
58666;DHT22;44436;52.872;6.520;2022-11-06T06:53:22;9.80;99.90
58666;DHT22;44436;52.872;6.520;2022-11-06T06:55:48;9.80;99.90
58666;DHT22;44436;52.872;6.520;2022-11-06T06:58:14;9.90;99.90
58666;DHT22;44436;52.872;6.520;2022-11-06T07:00:40;9.90;99.90
58666;DHT22;44436;52.872;6.520;2022-11-06T07:03:05;9.90;99.90
58666;DHT22;44436;52.872;6.520;2022-11-06T07:05:31;9.90;99.90
58666;DHT22;44436;52.872;6.520;2022-11-06T07:07:57;9.90;99.90
58666;DHT22;44436;52.872;6.520;2022-11-06T07:10:23;9.90;99.90
58666;DHT22;44436;52.872;6.520;2022-11-06T07:12:48;10.00;99.90
58666;DHT22;44436;52.872;6.520;2022-11-06T07:15:14;10.00;99.90
58666;DHT22;44436;52.872;6.520;2022-11-06T07:17:40;10.00;99.90
58666;DHT22;44436;52.872;6.520;2022-11-06T07:20:07;10.00;99.90
58666;DHT22;44436;52.872;6.520;2022-11-06T07:22:33;10.00;99.90
58666;DHT22;44436;52.872;6.520;2022-11-06T07:24:59;10.00;99.90
58666;DHT22;44436;52.872;6.520;2022-11-06T07:27:25;10.10;99.90
58666;DHT22;44436;52.872;6.520;2022-11-06T07:29:50;10.10;99.90
58666;DHT22;44436;52.872;6.520;2022-11-06T07:32:16;10.10;99.90
58666;DHT22;44436;52.872;6.520;2022-11-06T07:34:42;10.10;99.90
58666;DHT22;44436;52.872;6.520;2022-11-06T07:37:08;10.20;99.90
58666;DHT22;44436;52.872;6.520;2022-11-06T07:39:34;10.20;99.90
58666;DHT22;44436;52.872;6.520;2022-11-06T07:42:00;10.20;99.90
58666;DHT22;44436;52.872;6.520;2022-11-06T07:44:25;10.20;99.90
58666;DHT22;44436;52.872;6.520;2022-11-06T07:46:51;10.20;99.90
58666;DHT22;44436;52.872;6.520;2022-11-06T07:49:17;10.30;99.90
58666;DHT22;44436;52.872;6.520;2022-11-06T07:51:43;10.20;99.90
58666;DHT22;44436;52.872;6.520;2022-11-06T07:54:10;10.30;99.90
58666;DHT22;44436;52.872;6.520;2022-11-06T07:56:36;10.30;99.90
58666;DHT22;44436;52.872;6.520;2022-11-06T07:59:02;10.30;99.90
58666;DHT22;44436;52.872;6.520;2022-11-06T08:01:27;10.30;99.90
58666;DHT22;44436;52.872;6.520;2022-11-06T08:03:53;10.30;99.90
58666;DHT22;44436;52.872;6.520;2022-11-06T08:06:19;10.30;99.90
58666;DHT22;44436;52.872;6.520;2022-11-06T08:08:45;10.30;99.90
58666;DHT22;44436;52.872;6.520;2022-11-06T08:11:11;10.40;99.90
58666;DHT22;44436;52.872;6.520;2022-11-06T08:13:37;10.40;99.90
58666;DHT22;44436;52.872;6.520;2022-11-06T08:18:29;10.40;99.90
58666;DHT22;44436;52.872;6.520;2022-11-06T08:20:55;10.40;99.90
58666;DHT22;44436;52.872;6.520;2022-11-06T08:23:21;10.50;99.90
58666;DHT22;44436;52.872;6.520;2022-11-06T08:25:47;10.40;99.90
58666;DHT22;44436;52.872;6.520;2022-11-06T08:28:12;10.50;99.90
58666;DHT22;44436;52.872;6.520;2022-11-06T08:30:38;10.50;99.90
58666;DHT22;44436;52.872;6.520;2022-11-06T08:33:07;10.50;99.90
58666;DHT22;44436;52.872;6.520;2022-11-06T08:35:36;10.50;99.90
58666;DHT22;44436;52.872;6.520;2022-11-06T08:38:02;10.50;99.90
58666;DHT22;44436;52.872;6.520;2022-11-06T08:40:29;10.40;99.90
58666;DHT22;44436;52.872;6.520;2022-11-06T08:43:03;10.40;99.90
58666;DHT22;44436;52.872;6.520;2022-11-06T08:45:29;10.40;99.90
58666;DHT22;44436;52.872;6.520;2022-11-06T08:47:59;10.40;99.90
58666;DHT22;44436;52.872;6.520;2022-11-06T08:50:25;10.40;99.90
58666;DHT22;44436;52.872;6.520;2022-11-06T08:52:51;10.40;99.90
58666;DHT22;44436;52.872;6.520;2022-11-06T08:55:16;10.40;99.90
58666;DHT22;44436;52.872;6.520;2022-11-06T08:57:42;10.40;99.90
58666;DHT22;44436;52.872;6.520;2022-11-06T09:00:08;10.40;99.90
58666;DHT22;44436;52.872;6.520;2022-11-06T09:02:34;10.50;99.90
58666;DHT22;44436;52.872;6.520;2022-11-06T09:05:00;10.50;99.90
58666;DHT22;44436;52.872;6.520;2022-11-06T09:07:25;10.50;99.90
58666;DHT22;44436;52.872;6.520;2022-11-06T09:09:51;10.60;99.90
58666;DHT22;44436;52.872;6.520;2022-11-06T09:12:16;10.60;99.90
58666;DHT22;44436;52.872;6.520;2022-11-06T09:14:42;10.60;99.90
58666;DHT22;44436;52.872;6.520;2022-11-06T09:17:08;10.60;99.90
58666;DHT22;44436;52.872;6.520;2022-11-06T09:19:34;10.70;99.90
58666;DHT22;44436;52.872;6.520;2022-11-06T09:21:59;10.70;99.90
58666;DHT22;44436;52.872;6.520;2022-11-06T09:24:25;10.80;99.90
58666;DHT22;44436;52.872;6.520;2022-11-06T09:26:51;10.90;99.90
58666;DHT22;44436;52.872;6.520;2022-11-06T09:29:16;11.00;99.90
58666;DHT22;44436;52.872;6.520;2022-11-06T09:31:42;11.10;99.90
58666;DHT22;44436;52.872;6.520;2022-11-06T09:34:08;11.20;99.90
58666;DHT22;44436;52.872;6.520;2022-11-06T09:36:35;11.20;99.90
58666;DHT22;44436;52.872;6.520;2022-11-06T09:39:00;11.30;99.90
58666;DHT22;44436;52.872;6.520;2022-11-06T09:41:48;11.30;99.90
58666;DHT22;44436;52.872;6.520;2022-11-06T09:46:56;11.40;99.90
58666;DHT22;44436;52.872;6.520;2022-11-06T09:49:34;11.40;99.90
58666;DHT22;44436;52.872;6.520;2022-11-06T09:52:47;11.40;99.90
58666;DHT22;44436;52.872;6.520;2022-11-06T09:55:29;11.40;99.90
58666;DHT22;44436;52.872;6.520;2022-11-06T09:58:13;11.40;99.90
58666;DHT22;44436;52.872;6.520;2022-11-06T10:00:41;11.40;99.90
58666;DHT22;44436;52.872;6.520;2022-11-06T10:05:37;11.50;99.90
58666;DHT22;44436;52.872;6.520;2022-11-06T10:08:22;11.50;99.90
58666;DHT22;44436;52.872;6.520;2022-11-06T10:11:18;11.40;99.90
58666;DHT22;44436;52.872;6.520;2022-11-06T10:14:14;11.50;99.90
58666;DHT22;44436;52.872;6.520;2022-11-06T10:22:20;11.50;99.90
58666;DHT22;44436;52.872;6.520;2022-11-06T10:27:41;11.50;99.90
58666;DHT22;44436;52.872;6.520;2022-11-06T10:30:14;11.50;99.90
58666;DHT22;44436;52.872;6.520;2022-11-06T10:35:44;11.60;99.90
58666;DHT22;44436;52.872;6.520;2022-11-06T10:40:42;11.50;99.90
58666;DHT22;44436;52.872;6.520;2022-11-06T10:43:32;11.60;99.90
58666;DHT22;44436;52.872;6.520;2022-11-06T10:48:34;11.60;99.90
58666;DHT22;44436;52.872;6.520;2022-11-06T10:56:33;11.50;99.90
58666;DHT22;44436;52.872;6.520;2022-11-06T10:58:59;11.50;99.90
58666;DHT22;44436;52.872;6.520;2022-11-06T11:01:25;11.40;99.90
58666;DHT22;44436;52.872;6.520;2022-11-06T11:03:51;11.40;99.90
58666;DHT22;44436;52.872;6.520;2022-11-06T11:06:17;11.50;99.90
58666;DHT22;44436;52.872;6.520;2022-11-06T11:08:45;11.50;99.90
58666;DHT22;44436;52.872;6.520;2022-11-06T11:13:44;11.60;99.90
58666;DHT22;44436;52.872;6.520;2022-11-06T11:18:43;11.60;99.90
58666;DHT22;44436;52.872;6.520;2022-11-06T11:23:43;11.70;99.90
58666;DHT22;44436;52.872;6.520;2022-11-06T11:26:25;11.70;99.90
58666;DHT22;44436;52.872;6.520;2022-11-06T11:29:10;11.70;99.90
58666;DHT22;44436;52.872;6.520;2022-11-06T11:31:37;11.70;99.90
58666;DHT22;44436;52.872;6.520;2022-11-06T11:34:06;11.70;99.90
58666;DHT22;44436;52.872;6.520;2022-11-06T11:37:20;11.70;99.90
58666;DHT22;44436;52.872;6.520;2022-11-06T11:39:44;11.80;99.90
58666;DHT22;44436;52.872;6.520;2022-11-06T11:42:29;11.80;99.90
58666;DHT22;44436;52.872;6.520;2022-11-06T11:47:37;11.90;99.90
58666;DHT22;44436;52.872;6.520;2022-11-06T11:50:25;11.90;99.90
58666;DHT22;44436;52.872;6.520;2022-11-06T11:53:00;11.90;99.90
58666;DHT22;44436;52.872;6.520;2022-11-06T11:55:28;11.90;99.90
58666;DHT22;44436;52.872;6.520;2022-11-06T11:57:58;12.00;99.90
58666;DHT22;44436;52.872;6.520;2022-11-06T12:00:26;12.10;99.90
58666;DHT22;44436;52.872;6.520;2022-11-06T12:02:59;12.10;99.90
58666;DHT22;44436;52.872;6.520;2022-11-06T12:05:36;12.20;99.90
58666;DHT22;44436;52.872;6.520;2022-11-06T12:08:03;12.10;99.90
58666;DHT22;44436;52.872;6.520;2022-11-06T12:10:35;12.20;99.90
58666;DHT22;44436;52.872;6.520;2022-11-06T12:13:16;12.20;99.90
58666;DHT22;44436;52.872;6.520;2022-11-06T12:15:56;12.30;99.90
58666;DHT22;44436;52.872;6.520;2022-11-06T12:23:50;12.40;99.90
58666;DHT22;44436;52.872;6.520;2022-11-06T12:26:32;12.40;99.90
58666;DHT22;44436;52.872;6.520;2022-11-06T12:29:14;12.50;99.90
58666;DHT22;44436;52.872;6.520;2022-11-06T12:39:32;12.60;99.90
58666;DHT22;44436;52.872;6.520;2022-11-06T12:42:01;12.60;99.90
58666;DHT22;44436;52.872;6.520;2022-11-06T12:44:28;12.60;99.90
58666;DHT22;44436;52.872;6.520;2022-11-06T12:47:13;12.50;99.90
58666;DHT22;44436;52.872;6.520;2022-11-06T12:55:28;12.50;99.90
58666;DHT22;44436;52.872;6.520;2022-11-06T13:01:06;12.40;99.90
58666;DHT22;44436;52.872;6.520;2022-11-06T13:03:47;12.40;99.90
58666;DHT22;44436;52.872;6.520;2022-11-06T13:09:10;12.40;99.90
58666;DHT22;44436;52.872;6.520;2022-11-06T13:11:51;12.40;99.90
58666;DHT22;44436;52.872;6.520;2022-11-06T13:17:17;12.40;99.90
58666;DHT22;44436;52.872;6.520;2022-11-06T13:22:39;12.40;99.90
58666;DHT22;44436;52.872;6.520;2022-11-06T13:25:37;12.40;99.90
58666;DHT22;44436;52.872;6.520;2022-11-06T13:28:21;12.40;99.90
58666;DHT22;44436;52.872;6.520;2022-11-06T13:30:49;12.40;99.90
58666;DHT22;44436;52.872;6.520;2022-11-06T13:33:29;12.40;99.90
58666;DHT22;44436;52.872;6.520;2022-11-06T13:35:58;12.40;99.90
58666;DHT22;44436;52.872;6.520;2022-11-06T13:38:36;12.40;99.90
58666;DHT22;44436;52.872;6.520;2022-11-06T13:41:12;12.40;99.90
58666;DHT22;44436;52.872;6.520;2022-11-06T13:43:48;12.30;99.90
58666;DHT22;44436;52.872;6.520;2022-11-06T13:49:13;12.40;99.90
58666;DHT22;44436;52.872;6.520;2022-11-06T13:51:53;12.40;99.90
58666;DHT22;44436;52.872;6.520;2022-11-06T13:54:28;12.30;99.90
58666;DHT22;44436;52.872;6.520;2022-11-06T14:05:26;12.30;99.90
58666;DHT22;44436;52.872;6.520;2022-11-06T14:07:56;12.30;99.90
58666;DHT22;44436;52.872;6.520;2022-11-06T14:10:28;12.30;99.90
58666;DHT22;44436;52.872;6.520;2022-11-06T14:12:55;12.20;99.90
58666;DHT22;44436;52.872;6.520;2022-11-06T14:15:35;12.20;99.90
58666;DHT22;44436;52.872;6.520;2022-11-06T14:18:02;12.20;99.90
58666;DHT22;44436;52.872;6.520;2022-11-06T14:20:38;12.20;99.90
58666;DHT22;44436;52.872;6.520;2022-11-06T14:26:08;12.20;99.90
58666;DHT22;44436;52.872;6.520;2022-11-06T14:28:40;12.20;99.90
58666;DHT22;44436;52.872;6.520;2022-11-06T14:31:07;12.10;99.90
58666;DHT22;44436;52.872;6.520;2022-11-06T14:36:26;12.10;99.90
58666;DHT22;44436;52.872;6.520;2022-11-06T14:38:53;12.10;99.90
58666;DHT22;44436;52.872;6.520;2022-11-06T14:44:03;12.10;99.90
58666;DHT22;44436;52.872;6.520;2022-11-06T14:46:29;12.10;99.90
58666;DHT22;44436;52.872;6.520;2022-11-06T14:49:22;12.10;99.90
58666;DHT22;44436;52.872;6.520;2022-11-06T14:51:59;12.10;99.90
58666;DHT22;44436;52.872;6.520;2022-11-06T14:54:25;12.10;99.90
58666;DHT22;44436;52.872;6.520;2022-11-06T14:56:52;12.10;99.90
58666;DHT22;44436;52.872;6.520;2022-11-06T14:59:33;12.10;99.90
58666;DHT22;44436;52.872;6.520;2022-11-06T15:02:16;12.10;99.90
58666;DHT22;44436;52.872;6.520;2022-11-06T15:04:55;12.00;99.90
58666;DHT22;44436;52.872;6.520;2022-11-06T15:09:57;12.00;99.90
58666;DHT22;44436;52.872;6.520;2022-11-06T15:15:28;11.90;99.90
58666;DHT22;44436;52.872;6.520;2022-11-06T15:17:57;11.90;99.90
58666;DHT22;44436;52.872;6.520;2022-11-06T15:20:26;11.90;99.90
58666;DHT22;44436;52.872;6.520;2022-11-06T15:23:09;11.90;99.90
58666;DHT22;44436;52.872;6.520;2022-11-06T15:25:44;11.90;99.90
58666;DHT22;44436;52.872;6.520;2022-11-06T15:28:25;11.80;99.90
58666;DHT22;44436;52.872;6.520;2022-11-06T15:31:02;11.80;99.90
58666;DHT22;44436;52.872;6.520;2022-11-06T15:33:45;11.70;99.90
58666;DHT22;44436;52.872;6.520;2022-11-06T15:36:12;11.70;99.90
58666;DHT22;44436;52.872;6.520;2022-11-06T15:38:40;11.60;99.90
58666;DHT22;44436;52.872;6.520;2022-11-06T15:41:11;11.60;99.90
58666;DHT22;44436;52.872;6.520;2022-11-06T15:43:37;11.60;99.90
58666;DHT22;44436;52.872;6.520;2022-11-06T15:48:32;11.50;99.90
58666;DHT22;44436;52.872;6.520;2022-11-06T15:50:58;11.50;99.90
58666;DHT22;44436;52.872;6.520;2022-11-06T15:53:26;11.40;99.90
58666;DHT22;44436;52.872;6.520;2022-11-06T15:56:04;11.40;99.90
58666;DHT22;44436;52.872;6.520;2022-11-06T15:58:34;11.40;99.90
58666;DHT22;44436;52.872;6.520;2022-11-06T16:01:02;11.40;99.90
58666;DHT22;44436;52.872;6.520;2022-11-06T16:03:30;11.40;99.90
58666;DHT22;44436;52.872;6.520;2022-11-06T16:05:59;11.30;99.90
58666;DHT22;44436;52.872;6.520;2022-11-06T16:08:28;11.30;99.90
58666;DHT22;44436;52.872;6.520;2022-11-06T16:10:54;11.20;99.90
58666;DHT22;44436;52.872;6.520;2022-11-06T16:13:23;11.20;99.90
58666;DHT22;44436;52.872;6.520;2022-11-06T16:18:26;11.10;99.90
58666;DHT22;44436;52.872;6.520;2022-11-06T16:21:06;11.10;99.90
58666;DHT22;44436;52.872;6.520;2022-11-06T16:23:37;11.00;99.90
58666;DHT22;44436;52.872;6.520;2022-11-06T16:26:10;10.90;99.90
58666;DHT22;44436;52.872;6.520;2022-11-06T16:28:44;10.80;99.90
58666;DHT22;44436;52.872;6.520;2022-11-06T16:31:19;10.80;99.90
58666;DHT22;44436;52.872;6.520;2022-11-06T16:33:55;10.70;99.90
58666;DHT22;44436;52.872;6.520;2022-11-06T16:36:21;10.70;99.90
58666;DHT22;44436;52.872;6.520;2022-11-06T16:38:47;10.60;99.90
58666;DHT22;44436;52.872;6.520;2022-11-06T16:41:14;10.60;99.90
58666;DHT22;44436;52.872;6.520;2022-11-06T16:44:23;10.50;99.90
58666;DHT22;44436;52.872;6.520;2022-11-06T16:49:50;10.30;99.90
58666;DHT22;44436;52.872;6.520;2022-11-06T16:52:33;10.20;99.90
58666;DHT22;44436;52.872;6.520;2022-11-06T16:57:35;10.00;99.90
58666;DHT22;44436;52.872;6.520;2022-11-06T17:00:24;10.00;99.90
58666;DHT22;44436;52.872;6.520;2022-11-06T17:03:02;9.90;99.90
58666;DHT22;44436;52.872;6.520;2022-11-06T17:05:36;9.80;99.90
58666;DHT22;44436;52.872;6.520;2022-11-06T17:10:51;9.70;99.90
58666;DHT22;44436;52.872;6.520;2022-11-06T17:13:28;9.70;99.90
58666;DHT22;44436;52.872;6.520;2022-11-06T17:16:03;9.50;99.90
58666;DHT22;44436;52.872;6.520;2022-11-06T17:18:34;9.50;99.90
58666;DHT22;44436;52.872;6.520;2022-11-06T17:21:03;9.40;99.90
58666;DHT22;44436;52.872;6.520;2022-11-06T17:23:30;9.40;99.90
58666;DHT22;44436;52.872;6.520;2022-11-06T17:25:59;9.40;99.90
58666;DHT22;44436;52.872;6.520;2022-11-06T17:28:26;9.40;99.90
58666;DHT22;44436;52.872;6.520;2022-11-06T17:30:51;9.40;99.90
58666;DHT22;44436;52.872;6.520;2022-11-06T17:33:17;9.40;99.90
58666;DHT22;44436;52.872;6.520;2022-11-06T17:35:43;9.40;99.90
58666;DHT22;44436;52.872;6.520;2022-11-06T17:38:12;9.40;99.90
58666;DHT22;44436;52.872;6.520;2022-11-06T17:40:39;9.40;99.90
58666;DHT22;44436;52.872;6.520;2022-11-06T17:43:04;9.40;99.90
58666;DHT22;44436;52.872;6.520;2022-11-06T17:45:30;9.40;99.90
58666;DHT22;44436;52.872;6.520;2022-11-06T17:47:56;9.40;99.90
58666;DHT22;44436;52.872;6.520;2022-11-06T17:50:22;9.40;99.90
58666;DHT22;44436;52.872;6.520;2022-11-06T17:52:48;9.40;99.90
58666;DHT22;44436;52.872;6.520;2022-11-06T17:55:13;9.40;99.90
58666;DHT22;44436;52.872;6.520;2022-11-06T17:57:39;9.30;99.90
58666;DHT22;44436;52.872;6.520;2022-11-06T18:00:06;9.30;99.90
58666;DHT22;44436;52.872;6.520;2022-11-06T18:02:32;9.30;99.90
58666;DHT22;44436;52.872;6.520;2022-11-06T18:04:58;9.30;99.90
58666;DHT22;44436;52.872;6.520;2022-11-06T18:07:23;9.30;99.90
58666;DHT22;44436;52.872;6.520;2022-11-06T18:09:49;9.30;99.90
58666;DHT22;44436;52.872;6.520;2022-11-06T18:12:15;9.20;99.90
58666;DHT22;44436;52.872;6.520;2022-11-06T18:14:42;9.20;99.90
58666;DHT22;44436;52.872;6.520;2022-11-06T18:17:08;9.20;99.90
58666;DHT22;44436;52.872;6.520;2022-11-06T18:19:34;9.20;99.90